Terminal Aerodrome Forecast
Issued by NWS Jackson, MS

Home | Current Version | Previous Version | Text Only | Print | Product List | Glossary On
Versions: 1 2 3 4 5 6 7 8 9 10 11 12 13 14
000
FTUS44 KJAN 201700
TAFMEI
TAF
KMEI 201720Z 2018/2118 02006KT P6SM OVC025
     FM202000 02005KT P6SM SCT030
     FM210600 02004KT P6SM OVC015=

USA.gov is the U.S. government's official web portal to all federal, state and local government web resources and services.